createdAt,value
2017-03-08T00:00:29.787Z,1012.06
2017-03-08T00:01:29.765Z,1012.07
2017-03-08T00:02:29.748Z,1012.1
2017-03-08T00:03:29.721Z,1012.13
2017-03-08T00:04:29.705Z,1012.15
2017-03-08T00:05:29.674Z,1012.13
2017-03-08T00:06:29.656Z,1012.12
2017-03-08T00:07:29.636Z,1012.12
2017-03-08T00:08:29.601Z,1012.16
2017-03-08T00:09:29.584Z,1012.19
2017-03-08T00:10:29.562Z,1012.22
2017-03-08T00:11:29.538Z,1012.22
2017-03-08T00:12:29.512Z,1012.24
2017-03-08T00:13:29.491Z,1012.2
2017-03-08T00:14:29.466Z,1012.22
2017-03-08T00:15:29.441Z,1012.17
2017-03-08T00:16:29.475Z,1012.13
2017-03-08T00:17:29.399Z,1012.13
2017-03-08T00:18:29.379Z,1012.11
2017-03-08T00:19:29.348Z,1012.09
2017-03-08T00:20:29.329Z,1012.09
2017-03-08T00:21:29.306Z,1012.09
2017-03-08T00:22:29.281Z,1012.08
2017-03-08T00:23:29.266Z,1012.12
2017-03-08T00:24:29.242Z,1012.14
2017-03-08T00:25:29.213Z,1012.19
2017-03-08T00:26:29.238Z,1012.21
2017-03-08T00:27:29.163Z,1012.19
2017-03-08T00:28:29.143Z,1012.12
2017-03-08T00:29:29.122Z,1012.11
2017-03-08T00:30:29.195Z,1012.11
2017-03-08T00:31:29.082Z,1012.14
2017-03-08T00:32:29.158Z,1012.18
2017-03-08T00:33:29.028Z,1012.15
2017-03-08T00:34:29.008Z,1012.17
2017-03-08T00:35:28.980Z,1012.18
2017-03-08T00:36:29.060Z,1012.29
2017-03-08T00:37:28.938Z,1012.27
2017-03-08T00:38:28.964Z,1012.25
2017-03-08T00:39:28.888Z,1012.22
2017-03-08T00:40:28.869Z,1012.21
2017-03-08T00:41:28.841Z,1012.21
2017-03-08T00:42:28.825Z,1012.25
2017-03-08T00:43:28.790Z,1012.31
2017-03-08T00:44:28.855Z,1012.33
2017-03-08T00:45:28.747Z,1012.37
2017-03-08T00:46:28.724Z,1012.39
2017-03-08T00:47:28.699Z,1012.42
2017-03-08T00:48:28.692Z,1012.44
2017-03-08T00:49:28.650Z,1012.46
2017-03-08T00:50:28.628Z,1012.49
2017-03-08T00:51:28.610Z,1012.47
2017-03-08T00:52:28.588Z,1012.48
2017-03-08T00:53:28.560Z,1012.48
2017-03-08T00:54:28.535Z,1012.55
2017-03-08T00:55:28.516Z,1012.56
2017-03-08T00:56:28.493Z,1012.59
2017-03-08T00:57:28.469Z,1012.6
2017-03-08T00:58:28.445Z,1012.61
2017-03-08T00:59:28.417Z,1012.63
2017-03-08T01:00:28.396Z,1012.66
2017-03-08T01:01:28.372Z,1012.63
2017-03-08T01:02:28.350Z,1012.69
2017-03-08T01:03:28.324Z,1012.65
2017-03-08T01:04:28.303Z,1012.63
2017-03-08T01:05:28.284Z,1012.6
2017-03-08T01:06:28.255Z,1012.6
2017-03-08T01:07:28.232Z,1012.59
2017-03-08T01:08:28.209Z,1012.58
2017-03-08T01:09:28.182Z,1012.6
2017-03-08T01:10:28.161Z,1012.61
2017-03-08T01:11:28.139Z,1012.59
2017-03-08T01:12:28.115Z,1012.58
2017-03-08T01:13:28.100Z,1012.57
2017-03-08T01:14:28.076Z,1012.54
2017-03-08T01:15:28.049Z,1012.5
2017-03-08T01:16:28.019Z,1012.46
2017-03-08T01:17:27.998Z,1012.45
2017-03-08T01:18:27.976Z,1012.47
2017-03-08T01:19:27.956Z,1012.46
2017-03-08T01:20:27.926Z,1012.46
2017-03-08T01:21:27.905Z,1012.48
2017-03-08T01:22:27.884Z,1012.5
2017-03-08T01:23:27.855Z,1012.5
2017-03-08T01:24:27.833Z,1012.47
2017-03-08T01:25:27.811Z,1012.49
2017-03-08T01:26:27.786Z,1012.54
2017-03-08T01:27:27.762Z,1012.55
2017-03-08T01:28:27.744Z,1012.56
2017-03-08T01:29:27.722Z,1012.62
2017-03-08T01:30:27.691Z,1012.61
2017-03-08T01:31:27.670Z,1012.58
2017-03-08T01:32:27.651Z,1012.63
2017-03-08T01:33:27.629Z,1012.65
2017-03-08T01:34:27.601Z,1012.66
2017-03-08T01:35:27.575Z,1012.6
2017-03-08T01:36:27.552Z,1012.62
2017-03-08T01:37:27.528Z,1012.67
2017-03-08T01:38:27.505Z,1012.64
2017-03-08T01:39:27.481Z,1012.69
2017-03-08T01:40:27.455Z,1012.69
2017-03-08T01:41:27.438Z,1012.68
2017-03-08T01:42:27.409Z,1012.65
2017-03-08T01:43:27.385Z,1012.63
2017-03-08T01:44:27.366Z,1012.65
2017-03-08T01:45:27.341Z,1012.66
2017-03-08T01:46:27.315Z,1012.66
2017-03-08T01:47:27.294Z,1012.64
2017-03-08T01:48:27.267Z,1012.57
2017-03-08T01:49:27.254Z,1012.56
2017-03-08T01:50:27.220Z,1012.59
2017-03-08T01:51:27.197Z,1012.64
2017-03-08T01:52:27.180Z,1012.71
2017-03-08T01:53:27.153Z,1012.7
2017-03-08T01:54:27.136Z,1012.74
2017-03-08T01:55:27.102Z,1012.77
2017-03-08T01:56:27.084Z,1012.78
2017-03-08T01:57:27.057Z,1012.74
2017-03-08T01:58:27.036Z,1012.78
2017-03-08T01:59:27.015Z,1012.79
2017-03-08T02:00:26.988Z,1012.81
2017-03-08T02:01:26.966Z,1012.9
2017-03-08T02:02:26.940Z,1012.91
2017-03-08T02:03:26.915Z,1012.9
2017-03-08T02:04:26.894Z,1012.94
2017-03-08T02:05:26.866Z,1012.93
2017-03-08T02:06:26.843Z,1012.92
2017-03-08T02:07:26.824Z,1012.91
2017-03-08T02:08:26.798Z,1012.85
2017-03-08T02:09:26.779Z,1012.88
2017-03-08T02:10:26.751Z,1012.86
2017-03-08T02:11:26.729Z,1012.89
2017-03-08T02:12:26.710Z,1012.86
2017-03-08T02:13:26.679Z,1012.85
2017-03-08T02:14:26.657Z,1012.88
2017-03-08T02:15:26.637Z,1012.85
2017-03-08T02:16:26.608Z,1012.89
2017-03-08T02:17:26.587Z,1012.88
2017-03-08T02:18:26.564Z,1012.92
2017-03-08T02:19:26.542Z,1012.93
2017-03-08T02:20:26.515Z,1012.83
2017-03-08T02:21:26.492Z,1012.78
2017-03-08T02:22:26.464Z,1012.72
2017-03-08T02:23:26.446Z,1012.68
2017-03-08T02:24:26.422Z,1012.62
2017-03-08T02:25:26.397Z,1012.59
2017-03-08T02:26:26.372Z,1012.6
2017-03-08T02:27:26.350Z,1012.58
2017-03-08T02:28:26.327Z,1012.58
2017-03-08T02:29:26.303Z,1012.57
2017-03-08T02:30:26.279Z,1012.56
2017-03-08T02:31:26.255Z,1012.53
2017-03-08T02:32:26.231Z,1012.56
2017-03-08T02:33:26.207Z,1012.54
2017-03-08T02:34:26.192Z,1012.56
2017-03-08T02:35:26.161Z,1012.57
2017-03-08T02:36:26.136Z,1012.61
2017-03-08T02:37:26.113Z,1012.66
2017-03-08T02:38:26.092Z,1012.65
2017-03-08T02:39:26.066Z,1012.65
2017-03-08T02:40:26.043Z,1012.63
2017-03-08T02:41:26.018Z,1012.57
2017-03-08T02:42:26.003Z,1012.57
2017-03-08T02:43:25.970Z,1012.55
2017-03-08T02:44:25.947Z,1012.54
2017-03-08T02:45:25.931Z,1012.5
2017-03-08T02:46:25.902Z,1012.45
2017-03-08T02:47:25.879Z,1012.42
2017-03-08T02:48:25.851Z,1012.37
2017-03-08T02:49:25.828Z,1012.37
2017-03-08T02:50:25.833Z,1012.32
2017-03-08T02:51:25.780Z,1012.36
2017-03-08T02:52:25.760Z,1012.33
2017-03-08T02:53:25.732Z,1012.34
2017-03-08T02:54:25.710Z,1012.3
2017-03-08T02:55:25.685Z,1012.33
2017-03-08T02:56:25.661Z,1012.34
2017-03-08T02:57:25.637Z,1012.28
2017-03-08T02:58:25.615Z,1012.26
2017-03-08T02:59:25.590Z,1012.23
2017-03-08T03:00:25.569Z,1012.25
2017-03-08T03:01:25.543Z,1012.26
2017-03-08T03:02:25.524Z,1012.29
2017-03-08T03:03:25.501Z,1012.24
2017-03-08T03:04:25.472Z,1012.22
2017-03-08T03:05:25.450Z,1012.17
2017-03-08T03:06:25.430Z,1012.15
2017-03-08T03:07:25.397Z,1012.14
2017-03-08T03:08:25.380Z,1012.12
2017-03-08T03:09:25.353Z,1012.11
2017-03-08T03:10:25.329Z,1012.11
2017-03-08T03:11:25.311Z,1012.09
2017-03-08T03:12:25.279Z,1012.09
2017-03-08T03:13:25.260Z,1012.06
2017-03-08T03:14:25.236Z,1012.03
2017-03-08T03:15:25.209Z,1011.99
2017-03-08T03:16:25.188Z,1011.98
2017-03-08T03:17:25.160Z,1011.95
2017-03-08T03:18:25.136Z,1011.89
2017-03-08T03:19:25.115Z,1011.86
2017-03-08T03:20:25.095Z,1011.88
2017-03-08T03:21:25.064Z,1011.87
2017-03-08T03:22:25.040Z,1011.87
2017-03-08T03:23:25.024Z,1011.84
2017-03-08T03:24:24.993Z,1011.85
2017-03-08T03:25:24.970Z,1011.82
2017-03-08T03:26:24.946Z,1011.82
2017-03-08T03:27:24.921Z,1011.82
2017-03-08T03:28:24.900Z,1011.85
2017-03-08T03:29:24.880Z,1011.8
2017-03-08T03:30:24.851Z,1011.82
2017-03-08T03:31:24.825Z,1011.8
2017-03-08T03:32:24.800Z,1011.79
2017-03-08T03:33:24.778Z,1011.75
2017-03-08T03:34:24.752Z,1011.76
2017-03-08T03:35:24.735Z,1011.74
2017-03-08T03:36:24.714Z,1011.73
2017-03-08T03:37:24.681Z,1011.77
2017-03-08T03:38:24.655Z,1011.79
2017-03-08T03:39:24.635Z,1011.78
2017-03-08T03:40:24.614Z,1011.81
2017-03-08T03:41:24.583Z,1011.85
2017-03-08T03:42:24.562Z,1011.81
2017-03-08T03:43:24.541Z,1011.78
2017-03-08T03:44:24.513Z,1011.76
2017-03-08T03:45:24.490Z,1011.74
2017-03-08T03:46:24.467Z,1011.76
2017-03-08T03:47:24.442Z,1011.72
2017-03-08T03:48:24.420Z,1011.71
2017-03-08T03:49:24.396Z,1011.73
2017-03-08T03:50:24.368Z,1011.73
2017-03-08T03:51:24.348Z,1011.78
2017-03-08T03:52:24.334Z,1011.76
2017-03-08T03:53:24.299Z,1011.79
2017-03-08T03:54:24.278Z,1011.76
2017-03-08T03:55:24.246Z,1011.73
2017-03-08T03:56:24.224Z,1011.71
2017-03-08T03:57:24.203Z,1011.75
2017-03-08T03:58:24.177Z,1011.71
2017-03-08T03:59:24.151Z,1011.7
2017-03-08T04:00:24.129Z,1011.69
2017-03-08T04:01:24.106Z,1011.62
2017-03-08T04:02:24.085Z,1011.67
2017-03-08T04:03:24.055Z,1011.67
2017-03-08T04:04:24.033Z,1011.66
2017-03-08T04:05:24.012Z,1011.67
2017-03-08T04:06:23.981Z,1011.6
2017-03-08T04:07:23.963Z,1011.59
2017-03-08T04:08:23.936Z,1011.6
2017-03-08T04:09:23.912Z,1011.58
2017-03-08T04:10:23.900Z,1011.56
2017-03-08T04:11:23.861Z,1011.54
2017-03-08T04:12:23.838Z,1011.54
2017-03-08T04:13:23.817Z,1011.5
2017-03-08T04:14:23.792Z,1011.55
2017-03-08T04:15:23.767Z,1011.53
2017-03-08T04:16:23.738Z,1011.5
2017-03-08T04:17:23.716Z,1011.48
2017-03-08T04:18:23.790Z,1011.48
2017-03-08T04:19:23.668Z,1011.5
2017-03-08T04:20:23.650Z,1011.44
2017-03-08T04:21:23.623Z,1011.43
2017-03-08T04:22:23.601Z,1011.42
2017-03-08T04:23:23.573Z,1011.44
2017-03-08T04:24:23.548Z,1011.48
2017-03-08T04:25:23.523Z,1011.43
2017-03-08T04:26:23.504Z,1011.45
2017-03-08T04:27:23.473Z,1011.42
2017-03-08T04:28:23.450Z,1011.46
2017-03-08T04:29:23.430Z,1011.45
2017-03-08T04:30:23.408Z,1011.42
2017-03-08T04:31:23.375Z,1011.45
2017-03-08T04:32:23.357Z,1011.45
2017-03-08T04:33:23.327Z,1011.45
2017-03-08T04:34:23.306Z,1011.44
2017-03-08T04:35:23.279Z,1011.47
2017-03-08T04:36:23.254Z,1011.45
2017-03-08T04:37:23.231Z,1011.45
2017-03-08T04:38:23.214Z,1011.42
2017-03-08T04:39:23.183Z,1011.42
2017-03-08T04:40:23.155Z,1011.42
2017-03-08T04:41:23.134Z,1011.44
2017-03-08T04:42:23.112Z,1011.46
2017-03-08T04:43:23.092Z,1011.45
2017-03-08T04:44:23.062Z,1011.49
2017-03-08T04:45:23.050Z,1011.49
2017-03-08T04:46:23.010Z,1011.49
2017-03-08T04:47:22.999Z,1011.48
2017-03-08T04:48:22.969Z,1011.53
2017-03-08T04:49:22.939Z,1011.54
2017-03-08T04:50:22.916Z,1011.48
2017-03-08T04:51:22.899Z,1011.49
2017-03-08T04:52:22.868Z,1011.5
2017-03-08T04:53:22.847Z,1011.47
2017-03-08T04:54:22.816Z,1011.45
2017-03-08T04:55:22.793Z,1011.48
2017-03-08T04:56:22.775Z,1011.52
2017-03-08T04:57:22.746Z,1011.47
2017-03-08T04:58:22.724Z,1011.49
2017-03-08T04:59:22.697Z,1011.47
2017-03-08T05:00:22.673Z,1011.42
2017-03-08T05:01:22.659Z,1011.4
2017-03-08T05:02:22.631Z,1011.41
2017-03-08T05:03:22.600Z,1011.43
2017-03-08T05:04:22.586Z,1011.43
2017-03-08T05:05:22.551Z,1011.44
2017-03-08T05:06:22.532Z,1011.4
2017-03-08T05:07:22.504Z,1011.39
2017-03-08T05:08:22.477Z,1011.4
2017-03-08T05:09:22.459Z,1011.4
2017-03-08T05:10:22.428Z,1011.43
2017-03-08T05:11:22.407Z,1011.48
2017-03-08T05:12:22.379Z,1011.45
2017-03-08T05:13:22.357Z,1011.46
2017-03-08T05:14:22.337Z,1011.41
2017-03-08T05:15:22.306Z,1011.43
2017-03-08T05:16:22.282Z,1011.4
2017-03-08T05:17:22.263Z,1011.4
2017-03-08T05:18:22.247Z,1011.37
2017-03-08T05:19:22.209Z,1011.38
2017-03-08T05:20:22.183Z,1011.42
2017-03-08T05:21:22.156Z,1011.43
2017-03-08T05:22:22.132Z,1011.42
2017-03-08T05:23:22.109Z,1011.43
2017-03-08T05:24:22.091Z,1011.4
2017-03-08T05:25:22.058Z,1011.41
2017-03-08T05:26:22.039Z,1011.39
2017-03-08T05:27:22.008Z,1011.33
2017-03-08T05:28:21.987Z,1011.35
2017-03-08T05:29:21.965Z,1011.31
2017-03-08T05:30:21.935Z,1011.24
2017-03-08T05:31:21.917Z,1011.26
2017-03-08T05:32:21.887Z,1011.21
2017-03-08T05:33:21.862Z,1011.2
2017-03-08T05:34:21.836Z,1011.18
2017-03-08T05:35:21.814Z,1011.21
2017-03-08T05:36:21.795Z,1011.2
2017-03-08T05:37:21.814Z,1011.22
2017-03-08T05:38:21.740Z,1011.19
2017-03-08T05:39:21.719Z,1011.2
2017-03-08T05:40:21.693Z,1011.2
2017-03-08T05:41:21.668Z,1011.18
2017-03-08T05:42:21.643Z,1011.17
2017-03-08T05:43:21.619Z,1011.16
2017-03-08T05:44:21.592Z,1011.14
2017-03-08T05:45:21.569Z,1011.19
2017-03-08T05:46:21.548Z,1011.2
2017-03-08T05:47:21.524Z,1011.26
2017-03-08T05:48:21.492Z,1011.26
2017-03-08T05:49:21.471Z,1011.29
2017-03-08T05:50:21.444Z,1011.32
2017-03-08T05:51:21.430Z,1011.29
2017-03-08T05:52:21.399Z,1011.37
2017-03-08T05:53:21.377Z,1011.34
2017-03-08T05:54:21.346Z,1011.37
2017-03-08T05:55:21.325Z,1011.36
2017-03-08T05:56:21.300Z,1011.37
2017-03-08T05:57:21.283Z,1011.37
2017-03-08T05:58:21.254Z,1011.35
2017-03-08T05:59:21.232Z,1011.34
2017-03-08T06:00:21.203Z,1011.33
2017-03-08T06:01:21.176Z,1011.35
2017-03-08T06:02:21.154Z,1011.28
2017-03-08T06:03:21.134Z,1011.28
2017-03-08T06:04:21.102Z,1011.22
2017-03-08T06:05:21.081Z,1011.24
2017-03-08T06:06:21.057Z,1011.22
2017-03-08T06:07:21.030Z,1011.21
2017-03-08T06:08:21.005Z,1011.18
2017-03-08T06:09:20.983Z,1011.17
2017-03-08T06:10:20.958Z,1011.19
2017-03-08T06:11:20.938Z,1011.21
2017-03-08T06:12:20.906Z,1011.21
2017-03-08T06:13:20.881Z,1011.26
2017-03-08T06:14:20.858Z,1011.24
2017-03-08T06:15:20.834Z,1011.21
2017-03-08T06:16:20.813Z,1011.21
2017-03-08T06:17:20.783Z,1011.17
2017-03-08T06:18:20.763Z,1011.18
2017-03-08T06:19:20.735Z,1011.16
2017-03-08T06:20:20.709Z,1011.16
2017-03-08T06:21:20.692Z,1011.14
2017-03-08T06:22:20.661Z,1011.15
2017-03-08T06:23:20.636Z,1011.16
2017-03-08T06:24:20.615Z,1011.17
2017-03-08T06:25:20.590Z,1011.2
2017-03-08T06:26:20.565Z,1011.18
2017-03-08T06:27:20.538Z,1011.18
2017-03-08T06:28:20.518Z,1011.15
2017-03-08T06:29:20.497Z,1011.16
2017-03-08T06:30:20.468Z,1011.15
2017-03-08T06:31:20.437Z,1011.1
2017-03-08T06:32:20.425Z,1011.13
2017-03-08T06:33:20.396Z,1011.07
2017-03-08T06:34:20.375Z,1011.01
2017-03-08T06:35:20.347Z,1010.96
2017-03-08T06:36:20.324Z,1010.92
2017-03-08T06:37:20.302Z,1010.95
2017-03-08T06:38:20.280Z,1010.88
2017-03-08T06:39:20.247Z,1010.86
2017-03-08T06:40:20.223Z,1010.82
2017-03-08T06:41:20.202Z,1010.83
2017-03-08T06:42:20.175Z,1010.81
2017-03-08T06:43:20.150Z,1010.82
2017-03-08T06:44:20.125Z,1010.76
2017-03-08T06:45:20.100Z,1010.79
2017-03-08T06:46:20.076Z,1010.71
2017-03-08T06:47:20.058Z,1010.72
2017-03-08T06:48:20.035Z,1010.68
2017-03-08T06:49:20.007Z,1010.69
2017-03-08T06:50:19.983Z,1010.68
2017-03-08T06:51:19.956Z,1010.66
2017-03-08T06:52:19.935Z,1010.65
2017-03-08T06:53:19.905Z,1010.58
2017-03-08T06:54:19.885Z,1010.57
2017-03-08T06:55:19.868Z,1010.55
2017-03-08T06:56:19.834Z,1010.56
2017-03-08T06:57:19.814Z,1010.57
2017-03-08T06:58:19.786Z,1010.59
2017-03-08T06:59:19.765Z,1010.54
2017-03-08T07:00:19.738Z,1010.53
2017-03-08T07:01:19.720Z,1010.51
2017-03-08T07:02:19.690Z,1010.45
2017-03-08T07:03:19.669Z,1010.44
2017-03-08T07:04:19.641Z,1010.52
2017-03-08T07:05:19.617Z,1010.46
2017-03-08T07:06:19.601Z,1010.5
2017-03-08T07:07:19.569Z,1010.53
2017-03-08T07:08:19.546Z,1010.47
2017-03-08T07:09:19.545Z,1010.48
2017-03-08T07:10:19.515Z,1010.42
2017-03-08T07:11:19.476Z,1010.37
2017-03-08T07:12:19.453Z,1010.37
2017-03-08T07:13:19.425Z,1010.4
2017-03-08T07:14:19.430Z,1010.4
2017-03-08T07:15:19.373Z,1010.4
2017-03-08T07:16:19.354Z,1010.43
2017-03-08T07:17:19.332Z,1010.38
2017-03-08T07:18:19.353Z,1010.36
2017-03-08T07:19:19.281Z,1010.37
2017-03-08T07:20:19.259Z,1010.35
2017-03-08T07:21:19.232Z,1010.35
2017-03-08T07:22:19.206Z,1010.33
2017-03-08T07:23:19.179Z,1010.25
2017-03-08T07:24:19.155Z,1010.28
2017-03-08T07:25:19.129Z,1010.27
2017-03-08T07:26:19.199Z,1010.3
2017-03-08T07:27:19.087Z,1010.33
2017-03-08T07:28:19.068Z,1010.39
2017-03-08T07:29:19.044Z,1010.36
2017-03-08T07:30:19.041Z,1010.31
2017-03-08T07:31:18.989Z,1010.33
2017-03-08T07:32:18.974Z,1010.33
2017-03-08T07:33:18.940Z,1010.36
2017-03-08T07:34:18.923Z,1010.32
2017-03-08T07:35:18.890Z,1010.41
2017-03-08T07:36:19.125Z,1010.34
2017-03-08T07:37:18.842Z,1010.36
2017-03-08T07:38:18.821Z,1010.36
2017-03-08T07:39:18.795Z,1010.35
2017-03-08T07:40:18.774Z,1010.36
2017-03-08T07:41:18.751Z,1010.29
2017-03-08T07:42:18.726Z,1010.32
2017-03-08T07:43:18.701Z,1010.36
2017-03-08T07:44:18.687Z,1010.31
2017-03-08T07:45:18.649Z,1010.3
2017-03-08T07:46:18.627Z,1010.32
2017-03-08T07:47:18.602Z,1010.32
2017-03-08T07:48:18.581Z,1010.33
2017-03-08T07:49:18.555Z,1010.32
2017-03-08T07:50:18.536Z,1010.28
2017-03-08T07:51:18.504Z,1010.32
2017-03-08T07:52:18.484Z,1010.29
2017-03-08T07:53:18.464Z,1010.37
2017-03-08T07:54:18.444Z,1010.37
2017-03-08T07:55:18.410Z,1010.33
2017-03-08T07:56:18.392Z,1010.35
2017-03-08T07:57:18.363Z,1010.28
2017-03-08T07:58:18.338Z,1010.29
2017-03-08T07:59:18.317Z,1010.29
2017-03-08T08:00:18.288Z,1010.26
2017-03-08T08:01:18.267Z,1010.23
2017-03-08T08:02:18.250Z,1010.25
2017-03-08T08:03:18.219Z,1010.18
2017-03-08T08:04:18.193Z,1010.12
2017-03-08T08:05:18.168Z,1010.14
2017-03-08T08:06:18.144Z,1010.12
2017-03-08T08:07:18.120Z,1010.13
2017-03-08T08:08:18.097Z,1010.1
2017-03-08T08:09:18.069Z,1010.1
2017-03-08T08:10:18.044Z,1010.07
2017-03-08T08:11:18.022Z,1010.05
2017-03-08T08:12:17.999Z,1010.1
2017-03-08T08:13:17.973Z,1010.05
2017-03-08T08:14:17.950Z,1010.09
2017-03-08T08:15:17.928Z,1010.07
2017-03-08T08:16:17.901Z,1009.99
2017-03-08T08:17:17.883Z,1009.99
2017-03-08T08:18:17.853Z,1009.95
2017-03-08T08:19:17.830Z,1010
2017-03-08T08:20:17.803Z,1010.02
2017-03-08T08:21:17.779Z,1009.96
2017-03-08T08:22:17.759Z,1009.97
2017-03-08T08:23:17.737Z,1009.94
2017-03-08T08:24:17.709Z,1009.99
2017-03-08T08:25:17.686Z,1009.94
2017-03-08T08:26:17.658Z,1009.91
2017-03-08T08:27:17.642Z,1009.9
2017-03-08T08:28:17.614Z,1009.88
2017-03-08T08:29:17.588Z,1009.86
2017-03-08T08:30:17.565Z,1009.82
2017-03-08T08:31:17.542Z,1009.76
2017-03-08T08:32:17.518Z,1009.77
2017-03-08T08:33:17.494Z,1009.73
2017-03-08T08:34:17.471Z,1009.73
2017-03-08T08:35:17.451Z,1009.73
2017-03-08T08:36:17.421Z,1009.73
2017-03-08T08:37:17.400Z,1009.72
2017-03-08T08:38:17.372Z,1009.67
2017-03-08T08:39:17.349Z,1009.69
2017-03-08T08:40:17.323Z,1009.67
2017-03-08T08:41:17.315Z,1009.66
2017-03-08T08:42:17.279Z,1009.64
2017-03-08T08:43:17.258Z,1009.67
2017-03-08T08:44:17.237Z,1009.68
2017-03-08T08:45:17.275Z,1009.72
2017-03-08T08:46:17.196Z,1009.65
2017-03-08T08:47:17.163Z,1009.6
2017-03-08T08:48:17.134Z,1009.6
2017-03-08T08:49:17.152Z,1009.61
2017-03-08T08:50:17.085Z,1009.55
2017-03-08T08:51:17.066Z,1009.53
2017-03-08T08:52:17.053Z,1009.54
2017-03-08T08:53:17.024Z,1009.41
2017-03-08T08:54:16.990Z,1009.48
2017-03-08T08:55:16.972Z,1009.38
2017-03-08T08:56:16.947Z,1009.39
2017-03-08T08:57:16.920Z,1009.4
2017-03-08T08:58:16.899Z,1009.35
2017-03-08T08:59:16.877Z,1009.32
2017-03-08T09:00:16.853Z,1009.29
2017-03-08T09:01:16.828Z,1009.3
2017-03-08T09:02:16.800Z,1009.22
2017-03-08T09:03:16.779Z,1009.2
2017-03-08T09:04:16.756Z,1009.16
2017-03-08T09:05:16.732Z,1009.08
2017-03-08T09:06:16.715Z,1009.09
2017-03-08T09:07:16.684Z,1009.07
2017-03-08T09:08:16.667Z,1009.06
2017-03-08T09:09:16.645Z,1009.03
2017-03-08T09:10:16.612Z,1009.08
2017-03-08T09:11:16.595Z,1009.04
2017-03-08T09:12:16.570Z,1009.03
2017-03-08T09:13:16.539Z,1009.03
2017-03-08T09:14:16.524Z,1009
2017-03-08T09:15:16.495Z,1008.94
2017-03-08T09:16:16.469Z,1008.92
2017-03-08T09:17:16.448Z,1008.92
2017-03-08T09:18:16.427Z,1008.91
2017-03-08T09:19:16.397Z,1008.76
2017-03-08T09:20:16.373Z,1008.82
2017-03-08T09:21:16.349Z,1008.83
2017-03-08T09:22:16.328Z,1008.75
2017-03-08T09:23:16.307Z,1008.79
2017-03-08T09:24:16.286Z,1008.73
2017-03-08T09:25:16.255Z,1008.66
2017-03-08T09:26:16.235Z,1008.74
2017-03-08T09:27:16.210Z,1008.63
2017-03-08T09:28:16.189Z,1008.64
2017-03-08T09:29:16.163Z,1008.63
2017-03-08T09:30:16.144Z,1008.61
2017-03-08T09:31:16.112Z,1008.59
2017-03-08T09:32:16.092Z,1008.57
2017-03-08T09:33:16.073Z,1008.5
2017-03-08T09:34:16.049Z,1008.53
2017-03-08T09:35:16.019Z,1008.53
2017-03-08T09:36:16.001Z,1008.45
2017-03-08T09:37:15.980Z,1008.5
2017-03-08T09:38:15.950Z,1008.47
2017-03-08T09:39:15.925Z,1008.46
2017-03-08T09:40:15.906Z,1008.47
2017-03-08T09:41:15.878Z,1008.5
2017-03-08T09:42:15.859Z,1008.46
2017-03-08T09:43:15.833Z,1008.39
2017-03-08T09:44:15.807Z,1008.35
2017-03-08T09:45:15.788Z,1008.4
2017-03-08T09:46:15.764Z,1008.42
2017-03-08T09:47:15.739Z,1008.44
2017-03-08T09:48:15.714Z,1008.47
2017-03-08T09:49:15.690Z,1008.45
2017-03-08T09:50:15.663Z,1008.44
2017-03-08T09:51:15.640Z,1008.45
2017-03-08T09:52:15.623Z,1008.45
2017-03-08T09:53:15.595Z,1008.5
2017-03-08T09:54:15.571Z,1008.5
2017-03-08T09:55:15.550Z,1008.49
2017-03-08T09:56:15.526Z,1008.5
2017-03-08T09:57:15.500Z,1008.44
2017-03-08T09:58:15.486Z,1008.54
2017-03-08T09:59:15.458Z,1008.47
2017-03-08T10:00:15.432Z,1008.53
2017-03-08T10:01:15.406Z,1008.46
2017-03-08T10:02:15.386Z,1008.41
2017-03-08T10:03:15.366Z,1008.43
2017-03-08T10:04:15.341Z,1008.5
2017-03-08T10:05:15.315Z,1008.45
2017-03-08T10:06:15.294Z,1008.44
2017-03-08T10:07:15.276Z,1008.49
2017-03-08T10:08:15.246Z,1008.4
2017-03-08T10:09:15.223Z,1008.39
2017-03-08T10:10:15.201Z,1008.36
2017-03-08T10:11:15.181Z,1008.35
2017-03-08T10:12:15.160Z,1008.34
2017-03-08T10:13:15.132Z,1008.3
2017-03-08T10:14:15.341Z,1008.36
2017-03-08T10:15:15.086Z,1008.41
2017-03-08T10:16:15.069Z,1008.25
2017-03-08T10:17:15.041Z,1008.24
2017-03-08T10:18:15.011Z,1008.21
2017-03-08T10:19:14.990Z,1008.17
2017-03-08T10:20:14.969Z,1008.2
2017-03-08T10:21:14.946Z,1008.16
2017-03-08T10:22:14.927Z,1008.16
2017-03-08T10:23:14.894Z,1008.13
2017-03-08T10:24:14.875Z,1008.18
2017-03-08T10:25:14.857Z,1008.08
2017-03-08T10:26:14.826Z,1008.24
2017-03-08T10:27:14.805Z,1008.11
2017-03-08T10:28:14.781Z,1008.04
2017-03-08T10:29:14.755Z,1008.1
2017-03-08T10:30:14.731Z,1008.08
2017-03-08T10:31:14.711Z,1008.12
2017-03-08T10:32:14.691Z,1008.14
2017-03-08T10:33:14.664Z,1008.04
2017-03-08T10:34:14.645Z,1008.04
2017-03-08T10:35:14.619Z,1008.06
2017-03-08T10:36:14.626Z,1008.04
2017-03-08T10:37:14.568Z,1008.05
2017-03-08T10:38:14.545Z,1008.05
2017-03-08T10:39:14.529Z,1007.99
2017-03-08T10:40:14.507Z,1007.97
2017-03-08T10:41:14.476Z,1007.99
2017-03-08T10:42:14.455Z,1007.97
2017-03-08T10:43:14.435Z,1007.92
2017-03-08T10:44:14.405Z,1007.93
2017-03-08T10:45:14.386Z,1007.95
2017-03-08T10:46:14.364Z,1007.89
2017-03-08T10:47:14.343Z,1007.83
2017-03-08T10:48:14.314Z,1007.93
2017-03-08T10:49:14.291Z,1007.83
2017-03-08T10:50:14.272Z,1007.86
2017-03-08T10:51:14.243Z,1007.86
2017-03-08T10:52:14.220Z,1007.86
2017-03-08T10:53:14.220Z,1007.81
2017-03-08T10:54:14.178Z,1007.92
2017-03-08T10:55:14.147Z,1007.84
2017-03-08T10:56:14.129Z,1007.9
2017-03-08T10:57:14.103Z,1007.86
2017-03-08T10:58:14.079Z,1007.84
2017-03-08T10:59:14.057Z,1007.92
2017-03-08T11:00:14.037Z,1007.77
2017-03-08T11:01:14.008Z,1007.9
2017-03-08T11:02:13.985Z,1007.83
2017-03-08T11:03:13.963Z,1007.83
2017-03-08T11:04:13.945Z,1007.86
2017-03-08T11:05:13.914Z,1007.87
2017-03-08T11:06:13.895Z,1007.86
2017-03-08T11:07:13.869Z,1007.82
2017-03-08T11:08:13.851Z,1007.83
2017-03-08T11:09:13.825Z,1007.82
2017-03-08T11:10:13.802Z,1007.79
2017-03-08T11:11:13.780Z,1007.79
2017-03-08T11:12:13.755Z,1007.82
2017-03-08T11:13:13.728Z,1007.81
2017-03-08T11:14:13.712Z,1007.79
2017-03-08T11:15:13.680Z,1007.82
2017-03-08T11:16:13.661Z,1007.75
2017-03-08T11:17:13.639Z,1007.72
2017-03-08T11:18:13.617Z,1007.74
2017-03-08T11:19:13.588Z,1007.72
2017-03-08T11:20:13.577Z,1007.75
2017-03-08T11:21:13.546Z,1007.72
2017-03-08T11:22:13.518Z,1007.69
2017-03-08T11:23:13.498Z,1007.59
2017-03-08T11:24:13.470Z,1007.67
2017-03-08T11:25:13.454Z,1007.67
2017-03-08T11:26:13.423Z,1007.59
2017-03-08T11:27:13.401Z,1007.65
2017-03-08T11:28:13.375Z,1007.66
2017-03-08T11:29:13.351Z,1007.66
2017-03-08T11:30:13.337Z,1007.57
2017-03-08T11:31:13.312Z,1007.56
2017-03-08T11:32:13.281Z,1007.5
2017-03-08T11:33:13.270Z,1007.56
2017-03-08T11:34:13.239Z,1007.48
2017-03-08T11:35:13.218Z,1007.58
2017-03-08T11:36:13.186Z,1007.56
2017-03-08T11:37:13.168Z,1007.63
2017-03-08T11:38:13.149Z,1007.61
2017-03-08T11:39:13.119Z,1007.52
2017-03-08T11:40:13.091Z,1007.5
2017-03-08T11:41:13.067Z,1007.52
2017-03-08T11:42:13.046Z,1007.37
2017-03-08T11:43:13.019Z,1007.34
2017-03-08T11:44:12.996Z,1007.32
2017-03-08T11:45:12.975Z,1007.3
2017-03-08T11:46:12.954Z,1007.33
2017-03-08T11:47:12.928Z,1007.26
2017-03-08T11:48:12.900Z,1007.27
2017-03-08T11:49:12.882Z,1007.22
2017-03-08T11:50:12.851Z,1007.31
2017-03-08T11:51:12.830Z,1007.17
2017-03-08T11:52:12.806Z,1007.25
2017-03-08T11:53:12.781Z,1007.16
2017-03-08T11:54:12.759Z,1007.22
2017-03-08T11:55:12.731Z,1007.25
2017-03-08T11:56:12.709Z,1007.18
2017-03-08T11:57:12.687Z,1007.17
2017-03-08T11:58:12.667Z,1007.06
2017-03-08T11:59:12.639Z,1007.1
2017-03-08T12:00:12.612Z,1007.08
2017-03-08T12:01:12.585Z,1007.07
2017-03-08T12:02:12.566Z,1007
2017-03-08T12:03:12.553Z,1007
2017-03-08T12:04:12.514Z,1006.98
2017-03-08T12:05:12.489Z,1006.91
2017-03-08T12:06:12.465Z,1006.98
2017-03-08T12:07:12.453Z,1006.9
2017-03-08T12:08:12.422Z,1006.86